Wetterdaten: aktuell Sonntag, 21.04.2019 06:40
Datum Zeit Temp. I. Temp. A. Boden Garten Temp. Wind Windchill X Feuchte I. Feuchte A. Garten Boden Luftdruck Regen Wind Richtung Richtung Windchill Windben
21.04.2019 06:40 20,2 C 6,8 C 5,1 C 7,8 C 4,5 C 0,0 C 44 % 75 % 5 % 52 % 1022,1 hPa 0,0 l/m 0,0 km/h NW 315 0,0 C 0,0 km/h
21.04.2019 06:20 20,3 C 6,7 C 5,3 C 7,8 C 4,5 C 0,0 C 44 % 75 % 5 % 52 % 1022,1 hPa 0,0 l/m 0,0 km/h NW 315 0,0 C 0,0 km/h
21.04.2019 06:00 20,2 C 7,1 C 5,6 C 8,0 C 4,7 C 0,0 C 44 % 74 % 5 % 51 % 1022,0 hPa 0,0 l/m 0,0 km/h NW 315 0,0 C 0,0 km/h
21.04.2019 05:40 20,4 C 7,2 C 5,8 C 8,3 C 4,8 C 0,0 C 44 % 73 % 5 % 51 % 1022,1 hPa 0,0 l/m 0,0 km/h NW 315 0,0 C 0,0 km/h
21.04.2019 05:20 20,4 C 7,3 C 6,0 C 8,4 C 4,9 C 0,0 C 44 % 73 % 5 % 50 % 1022,6 hPa 0,0 l/m 0,0 km/h NW 315 0,0 C 0,0 km/h
21.04.2019 05:00 20,5 C 8,0 C 6,6 C 8,8 C 5,3 C 0,0 C 44 % 72 % 5 % 50 % 1022,6 hPa 0,0 l/m 0,0 km/h NW 315 0,0 C 0,0 km/h
21.04.2019 04:40 20,5 C 8,3 C 6,9 C 9,2 C 5,5 C 0,0 C 44 % 71 % 5 % 50 % 1023,0 hPa 0,0 l/m 0,0 km/h NW 315 0,0 C 0,0 km/h
21.04.2019 04:20 20,6 C 8,5 C 7,3 C 9,4 C 5,7 C 0,0 C 44 % 71 % 5 % 49 % 1022,9 hPa 0,0 l/m 0,0 km/h NW 315 0,0 C 0,0 km/h
21.04.2019 04:00 20,6 C 8,7 C 7,5 C 9,6 C 5,8 C 0,0 C 43 % 70 % 5 % 49 % 1022,9 hPa 0,0 l/m 0,0 km/h NW 315 0,0 C 0,0 km/h
21.04.2019 03:47 20,6 C 8,8 C 7,9 C 9,9 C 5,9 C 0,0 C 43 % 69 % 5 % 48 % 1022,9 hPa 0,0 l/m 0,0 km/h NW 315 0,0 C 0,0 km/h
21.04.2019 03:29 20,6 C 8,8 C 7,9 C 9,9 C 5,9 C 0,0 C 43 % 69 % 5 % 48 % 1022,9 hPa 0,0 l/m 0,0 km/h NW 315 0,0 C 0,0 km/h
21.04.2019 03:00 20,8 C 9,6 C 8,8 C 10,6 C 6,4 C 0,0 C 43 % 67 % 5 % 47 % 1023,6 hPa 0,0 l/m 0,0 km/h NW 315 0,0 C 0,0 km/h
21.04.2019 02:40 20,8 C 9,8 C 9,2 C 10,9 C 6,5 C 0,0 C 43 % 66 % 5 % 46 % 1023,7 hPa 0,0 l/m 0,0 km/h NW 315 0,0 C 0,0 km/h
21.04.2019 02:20 20,8 C 10,3 C 9,8 C 11,4 C 6,9 C 0,0 C 43 % 64 % 5 % 45 % 1024,0 hPa 0,0 l/m 0,0 km/h NW 315 0,0 C 0,0 km/h
21.04.2019 02:00 20,9 C 10,8 C 10,5 C 11,8 C 7,2 C 0,0 C 43 % 63 % 5 % 44 % 1024,1 hPa 0,0 l/m 0,0 km/h NW 315 0,0 C 0,0 km/h
21.04.2019 01:40 21,0 C 11,5 C 11,0 C 12,4 C 7,7 C 0,0 C 43 % 61 % 5 % 43 % 1024,2 hPa 0,0 l/m 0,0 km/h NW 315 0,0 C 0,0 km/h
21.04.2019 01:20 21,0 C 11,9 C 11,6 C 12,8 C 7,9 C 0,0 C 42 % 58 % 5 % 41 % 1024,4 hPa 0,0 l/m 0,0 km/h NW 315 0,0 C 0,0 km/h
21.04.2019 01:00 21,0 C 12,3 C 12,1 C 13,3 C 8,2 C 0,0 C 42 % 55 % 5 % 39 % 1024,6 hPa 0,0 l/m 0,0 km/h NW 315 0,0 C 0,0 km/h
21.04.2019 00:40 21,1 C 12,8 C 12,6 C 13,7 C 8,5 C 0,0 C 42 % 54 % 5 % 38 % 1024,5 hPa 0,0 l/m 0,0 km/h NW 315 0,0 C 0,0 km/h
21.04.2019 00:20 21,1 C 13,4 C 13,2 C 14,2 C 8,9 C 0,0 C 42 % 52 % 5 % 37 % 1024,6 hPa 0,0 l/m 0,0 km/h NW 315 0,0 C 0,0 km/h
21.04.2019 00:00 21,2 C 13,9 C 13,5 C 14,6 C 9,3 C 0,0 C 42 % 50 % 5 % 36 % 1024,8 hPa 0,0 l/m 0,0 km/h NW 315 0,0 C 0,0 km/h
20.04.2019 23:40 21,2 C 14,2 C 13,9 C 15,1 C 9,5 C 0,0 C 42 % 49 % 5 % 35 % 1024,6 hPa 0,0 l/m 0,0 km/h NW 315 0,0 C 0,0 km/h
20.04.2019 23:20 21,2 C 14,8 C 14,4 C 15,4 C 9,9 C 0,0 C 42 % 47 % 5 % 35 % 1024,9 hPa 0,0 l/m 0,0 km/h NW 315 0,0 C 0,0 km/h
20.04.2019 23:00 21,2 C 15,4 C 14,8 C 15,9 C 10,3 C 0,0 C 41 % 46 % 5 % 34 % 1024,5 hPa 0,0 l/m 0,0 km/h NW 315 0,0 C 0,0 km/h
20.04.2019 22:40 21,1 C 15,8 C 15,3 C 16,2 C 10,5 C 0,0 C 41 % 45 % 5 % 35 % 1024,6 hPa 0,0 l/m 0,0 km/h NW 315 0,0 C 0,0 km/h
20.04.2019 22:20 20,9 C 16,2 C 15,8 C 16,6 C 10,8 C 0,0 C 40 % 44 % 5 % 35 % 1024,5 hPa 0,0 l/m 0,0 km/h NW 315 0,0 C 0,0 km/h
20.04.2019 22:00 20,7 C 16,7 C 16,2 C 17,0 C 11,1 C 0,0 C 39 % 43 % 5 % 34 % 1024,4 hPa 0,0 l/m 0,0 km/h NW 315 0,0 C 0,0 km/h
20.04.2019 21:40 20,7 C 17,1 C 16,8 C 17,5 C 11,4 C 0,0 C 39 % 41 % 5 % 33 % 1024,1 hPa 0,0 l/m 0,0 km/h NW 315 0,0 C 0,0 km/h
20.04.2019 21:20 20,9 C 17,5 C 17,4 C 17,9 C 11,7 C 0,0 C 38 % 40 % 5 % 33 % 1023,9 hPa 0,0 l/m 0,0 km/h NW 315 0,0 C 0,0 km/h
20.04.2019 21:00 21,2 C 18,1 C 18,1 C 18,4 C 12,1 C 0,0 C 38 % 39 % 5 % 32 % 1023,9 hPa 0,0 l/m 0,0 km/h NW 315 0,0 C 0,0 km/h
20.04.2019 20:40 21,5 C 18,8 C 19,1 C 19,0 C 12,5 C 0,0 C 37 % 37 % 5 % 32 % 1023,6 hPa 0,0 l/m 0,0 km/h NW 315 0,0 C 0,0 km/h
20.04.2019 20:20 21,9 C 19,5 C 20,0 C 19,6 C 13,0 C 0,0 C 36 % 35 % 5 % 31 % 1023,9 hPa 0,0 l/m 0,0 km/h NW 315 0,0 C 0,0 km/h
20.04.2019 20:00 22,5 C 19,9 C 20,9 C 20,1 C 13,3 C 0,0 C 34 % 32 % 5 % 30 % 1023,9 hPa 0,0 l/m 0,0 km/h NW 315 0,0 C 0,0 km/h
20.04.2019 19:40 23,2 C 21,1 C 21,6 C 20,4 C 14,1 C 0,0 C 33 % 29 % 5 % 30 % 1024,2 hPa 0,0 l/m 0,0 km/h NW 315 0,0 C 0,0 km/h
20.04.2019 19:20 24,7 C 22,3 C 22,0 C 20,8 C 14,9 C 0,0 C 31 % 26 % 5 % 30 % 1025,4 hPa 0,0 l/m 0,0 km/h NW 315 0,0 C 0,0 km/h
20.04.2019 19:00 29,0 C 23,0 C 22,2 C 21,1 C 15,3 C 0,0 C 28 % 25 % 5 % 29 % 1016,7 hPa 0,0 l/m 0,0 km/h NW 315 0,0 C 0,0 km/h
20.04.2019 18:40 25,0 C 23,3 C 22,6 C 21,2 C 15,5 C 0,0 C 33 % 25 % 5 % 29 % 1024,3 hPa 0,0 l/m 0,0 km/h NW 315 0,0 C 0,0 km/h
20.04.2019 18:20 22,0 C 23,6 C 22,7 C 21,5 C 15,7 C 0,0 C 35 % 25 % 5 % 29 % 1024,4 hPa 0,0 l/m 0,0 km/h NW 315 0,0 C 0,0 km/h
20.04.2019 18:00 22,0 C 23,5 C 22,7 C 21,7 C 15,7 C 0,0 C 35 % 25 % 5 % 29 % 1024,4 hPa 0,0 l/m 0,0 km/h NW 315 0,0 C 0,0 km/h
20.04.2019 17:40 21,9 C 23,2 C 22,9 C 21,8 C 15,5 C 0,0 C 36 % 27 % 5 % 30 % 1024,1 hPa 0,0 l/m 0,0 km/h NW 315 0,0 C 0,0 km/h
20.04.2019 17:20 21,9 C 22,7 C 22,6 C 21,8 C 15,1 C 0,0 C 35 % 26 % 5 % 29 % 1024,9 hPa 0,0 l/m 0,0 km/h NW 315 0,0 C 0,0 km/h
20.04.2019 17:00 21,8 C 22,8 C 23,2 C 21,9 C 15,2 C 0,0 C 36 % 26 % 5 % 30 % 1025,1 hPa 0,0 l/m 0,0 km/h NW 315 0,0 C 0,0 km/h
20.04.2019 16:40 21,8 C 22,8 C 23,0 C 22,0 C 15,2 C 0,0 C 36 % 26 % 5 % 29 % 1025,2 hPa 0,0 l/m 0,0 km/h NW 315 0,0 C 0,0 km/h
20.04.2019 16:20 21,8 C 21,7 C 22,9 C 22,0 C 14,5 C 0,0 C 36 % 29 % 5 % 30 % 1025,6 hPa 0,0 l/m 0,0 km/h NW 315 0,0 C 0,0 km/h
20.04.2019 16:04 21,8 C 21,3 C 22,7 C 22,0 C 14,2 C 0,0 C 38 % 32 % 5 % 31 % 1025,9 hPa 0,0 l/m 0,0 km/h NW 315 0,0 C 0,0 km/h
20.04.2019 16:00 21,8 C 21,3 C 22,7 C 22,0 C 14,2 C 0,0 C 38 % 32 % 5 % 31 % 1025,9 hPa 0,0 l/m 0,0 km/h NW 315 0,0 C 0,0 km/h
20.04.2019 15:40 21,8 C 21,2 C 22,4 C 22,0 C 14,1 C 0,0 C 38 % 33 % 5 % 32 % 1025,8 hPa 0,0 l/m 0,0 km/h NW 315 0,0 C 0,0 km/h
20.04.2019 15:20 21,9 C 21,0 C 22,3 C 21,8 C 14,0 C 0,0 C 38 % 33 % 5 % 32 % 1025,9 hPa 0,0 l/m 0,0 km/h NW 315 0,0 C 0,0 km/h
20.04.2019 15:00 21,9 C 20,9 C 22,0 C 21,8 C 13,9 C 0,0 C 38 % 35 % 5 % 33 % 1026,2 hPa 0,0 l/m 0,0 km/h NW 315 0,0 C 0,0 km/h
20.04.2019 14:40 22,1 C 20,7 C 21,7 C 21,6 C 13,8 C 0,0 C 37 % 34 % 5 % 32 % 1026,2 hPa 0,0 l/m 0,0 km/h NW 315 0,0 C 0,0 km/h
20.04.2019 14:20 22,4 C 20,7 C 21,2 C 21,4 C 13,8 C 0,0 C 37 % 35 % 5 % 33 % 1026,4 hPa 0,0 l/m 0,0 km/h NW 315 0,0 C 0,0 km/h
20.04.2019 14:00 22,7 C 20,4 C 20,9 C 21,3 C 13,6 C 0,0 C 37 % 35 % 5 % 33 % 1026,4 hPa 0,0 l/m 0,0 km/h NW 315 0,0 C 0,0 km/h
20.04.2019 13:40 23,2 C 20,3 C 20,4 C 21,0 C 13,5 C 0,0 C 36 % 35 % 5 % 33 % 1026,4 hPa 0,0 l/m 0,0 km/h NW 315 0,0 C 0,0 km/h
20.04.2019 13:20 23,4 C 20,0 C 19,8 C 20,8 C 13,3 C 0,0 C 37 % 37 % 5 % 34 % 1026,7 hPa 0,0 l/m 0,0 km/h NW 315 0,0 C 0,0 km/h
20.04.2019 13:00 23,2 C 19,9 C 19,4 C 20,6 C 13,3 C 0,0 C 37 % 37 % 5 % 35 % 1026,7 hPa 0,0 l/m 0,0 km/h NW 315 0,0 C 0,0 km/h
20.04.2019 12:40 23,1 C 19,6 C 18,7 C 20,5 C 13,1 C 0,0 C 37 % 38 % 5 % 35 % 1027,1 hPa 0,0 l/m 0,0 km/h NW 315 0,0 C 0,0 km/h
20.04.2019 12:20 22,9 C 19,1 C 17,9 C 20,0 C 12,7 C 0,0 C 37 % 36 % 5 % 34 % 1027,2 hPa 0,0 l/m 0,0 km/h NW 315 0,0 C 0,0 km/h
20.04.2019 12:00 22,6 C 18,8 C 17,4 C 19,7 C 12,5 C 0,0 C 38 % 39 % 5 % 36 % 1027,4 hPa 0,0 l/m 0,0 km/h NW 315 0,0 C 0,0 km/h
20.04.2019 11:40 22,4 C 18,0 C 16,5 C 19,2 C 12,0 C 0,0 C 40 % 45 % 5 % 38 % 1027,7 hPa 0,0 l/m 0,0 km/h NW 315 0,0 C 0,0 km/h
20.04.2019 11:20 22,0 C 17,3 C 15,4 C 18,5 C 11,5 C 0,0 C 41 % 48 % 5 % 39 % 1027,6 hPa 0,0 l/m 0,0 km/h NW 315 0,0 C 0,0 km/h
20.04.2019 11:00 21,6 C 16,8 C 14,4 C 17,7 C 11,2 C 0,0 C 42 % 49 % 5 % 40 % 1028,0 hPa 0,0 l/m 0,0 km/h NW 315 0,0 C 0,0 km/h
20.04.2019 10:40 21,2 C 16,9 C 13,3 C 17,2 C 11,3 C 0,0 C 43 % 49 % 5 % 40 % 1028,2 hPa 0,0 l/m 0,0 km/h NW 315 0,0 C 0,0 km/h
20.04.2019 10:20 20,8 C 17,3 C 12,2 C 16,6 C 11,5 C 0,0 C 44 % 48 % 5 % 40 % 1028,4 hPa 0,0 l/m 0,0 km/h NW 315 0,0 C 0,0 km/h
20.04.2019 10:00 20,5 C 18,8 C 11,0 C 16,2 C 12,5 C 0,0 C 45 % 46 % 5 % 40 % 1028,5 hPa 0,0 l/m 0,0 km/h NW 315 0,0 C 0,0 km/h
20.04.2019 09:40 20,4 C 19,6 C 10,0 C 15,9 C 13,1 C 0,0 C 46 % 49 % 5 % 41 % 1028,7 hPa 0,0 l/m 0,0 km/h NW 315 0,0 C 0,0 km/h
20.04.2019 09:20 20,3 C 18,1 C 9,1 C 16,0 C 12,1 C 0,0 C 46 % 53 % 5 % 40 % 1028,4 hPa 0,0 l/m 0,0 km/h NW 315 0,0 C 0,0 km/h
20.04.2019 09:00 20,3 C 16,0 C 8,4 C 17,4 C 10,7 C 0,0 C 46 % 61 % 5 % 39 % 1028,4 hPa 0,0 l/m 0,0 km/h NW 315 0,0 C 0,0 km/h
20.04.2019 08:40 20,3 C 13,9 C 8,0 C 21,7 C 9,3 C 0,0 C 46 % 60 % 5 % 33 % 1028,2 hPa 0,0 l/m 0,0 km/h NW 315 0,0 C 0,0 km/h
20.04.2019 08:20 20,3 C 13,7 C 7,8 C 27,9 C 9,1 C 0,0 C 46 % 68 % 5 % 30 % 1028,1 hPa 0,0 l/m 0,0 km/h NW 315 0,0 C 0,0 km/h
20.04.2019 08:00 20,3 C 10,0 C 7,5 C 24,6 C 6,7 C 0,0 C 46 % 73 % 5 % 33 % 1028,4 hPa 0,0 l/m 0,0 km/h NW 315 0,0 C 0,0 km/h
20.04.2019 07:40 20,2 C 9,0 C 7,5 C 21,4 C 6,0 C 0,0 C 46 % 73 % 5 % 37 % 1028,2 hPa 0,0 l/m 0,0 km/h NW 315 0,0 C 0,0 km/h
20.04.2019 07:39 20,2 C 9,0 C 7,5 C 21,4 C 6,0 C 0,0 C 46 % 73 % 5 % 37 % 1028,2 hPa 0,0 l/m 0,0 km/h NW 315 0,0 C 0,0 km/h
20.04.2019 07:20 20,2 C 8,8 C 7,6 C 16,5 C 5,9 C 0,0 C 45 % 72 % 5 % 41 % 1027,9 hPa 0,0 l/m 0,0 km/h NW 315 0,0 C 0,0 km/h
20.04.2019 07:00 20,4 C 8,7 C 7,7 C 10,2 C 5,8 C 0,0 C 45 % 71 % 5 % 49 % 1027,9 hPa 0,0 l/m 0,0 km/h NW 315 0,0 C 0,0 km/h
_ Min-Zeit 06:40 06:20 06:40 06:40 06:40 06:40 19:00 19:00 06:40 19:00 19:00 - 06:40 - - 06:40 06:40
Minimum _ 20,2 C 6,7 C 5,1 C 7,8 C 4,5 C 0,0 C 28 % 25 % 5 % 29 % 1016,7 hPa - 0,0 km/h - - 0,0 C 0,0 km/h
_ Max-Zeit 19:00 18:20 17:00 08:20 18:20 06:40 09:40 06:40 06:40 06:40 09:40 06:40 06:40 - - 06:40 06:40
Maximum _ 29,0 C 23,6 C 23,2 C 27,9 C 15,7 C 0,0 C 46 % 75 % 5 % 52 % 1028,7 hPa 0,0 l/m 0,0 km/h
NW
- - 0,0 C 0,0 km/h
NW
Durchschnitt _ 21,4 C 15,4 C 14,2 C 16,5 C 10,3 C 0,0 C 41 % 50 % 5 % 38 % 1025,4 hPa #0,0 l/m 0,0 km/h NW - 0,0 C 0,0 km/h